Kagoshima Kohaku No7 — JD4100 — position and weather

sailwx.info

Track history (hours):
 
Tides and Currents Weather Stations Pressure Air Temp Water Temp Dewpoint Dewpoint Depression Visibility Wind Speed Wind Dir Waves Ship Positions

Kagoshima Kohaku No7

Last reported at 2017-Nov-16 23:56 UTC. Time now 2017-Nov-21 23:13 UTC.
Position N 34°00' E 135°02'.

Length 75 m; draft 2.7 m.

Type: Cargo ship. MMSI: 431008653.

Date/timePositionNaut miles runAvg speedWind from/ knotsBaromVisibWave heightAir tempDewpointWater temp
2017-Nov-16 23:56N 34°00' E 135°02'511.9
2017-Nov-16 23:30N 34°05' E 135°02'611.1
2017-Nov-16 23:00N 34°11' E 135°02'610.9
2017-Nov-16 22:26N 34°17' E 135°04'711.3
2017-Nov-16 21:50N 34°24' E 135°04'411.0
2017-Nov-16 21:30N 34°27' E 135°04'510.7
2017-Nov-16 21:00N 34°33' E 135°04'5 9.0
2017-Nov-16 20:30N 34°37' E 135°02'5 9.2
2017-Nov-16 19:57N 34°36' E 134°55'510.6
2017-Nov-16 19:26N 34°39' E 134°50'  
2017-Nov-10 21:29N 34°41' E 134°50'  
2017-Nov-07 02:39N 34°03' E 135°03'212.6
2017-Nov-07 02:28N 34°05' E 135°03'612.2
2017-Nov-07 02:00N 34°11' E 135°03'811.4
2017-Nov-07 01:17N 34°19' E 135°04'610.2
2017-Nov-07 00:39N 34°25' E 135°04'210.6
2017-Nov-07 00:29N 34°27' E 135°04'510.5
2017-Nov-07 00:00N 34°32' E 135°04'  
Track history (hours):
 
Tides and Currents Weather Stations Pressure Air Temp Water Temp Dewpoint Dewpoint Depression Visibility Wind Speed Wind Dir Waves Ship Positions

Kagoshima Kohaku No7

Last reported at 2017-Nov-16 23:56 UTC. Time now 2017-Nov-21 23:13 UTC.
Position N 34°00' E 135°02'.

Length 75 m; draft 2.7 m.

Type: Cargo ship. MMSI: 431008653.

Date/timePositionNaut miles runAvg speedWind from/ knotsBaromVisibWave heightAir tempDewpointWater temp
2017-Nov-16 23:56N 34°00' E 135°02'511.9
2017-Nov-16 23:30N 34°05' E 135°02'611.1
2017-Nov-16 23:00N 34°11' E 135°02'610.9
2017-Nov-16 22:26N 34°17' E 135°04'711.3
2017-Nov-16 21:50N 34°24' E 135°04'411.0
2017-Nov-16 21:30N 34°27' E 135°04'510.7
2017-Nov-16 21:00N 34°33' E 135°04'5 9.0
2017-Nov-16 20:30N 34°37' E 135°02'5 9.2
2017-Nov-16 19:57N 34°36' E 134°55'510.6
2017-Nov-16 19:26N 34°39' E 134°50'  
2017-Nov-10 21:29N 34°41' E 134°50'  
2017-Nov-07 02:39N 34°03' E 135°03'212.6
2017-Nov-07 02:28N 34°05' E 135°03'612.2
2017-Nov-07 02:00N 34°11' E 135°03'811.4
2017-Nov-07 01:17N 34°19' E 135°04'610.2
2017-Nov-07 00:39N 34°25' E 135°04'210.6
2017-Nov-07 00:29N 34°27' E 135°04'510.5
2017-Nov-07 00:00N 34°32' E 135°04'  

Dump ship's entire track history